This is the latest recevied weather packets stored in our database for station/object W0AKO. If no packets are shown the sender has not sent any weather packets the latest 1 day(s).
| Time | Temp. | Humidity | Pressure | Rain* | Wind** | Luminosity | Snow |
|---|---|---|---|---|---|---|---|
| 1777975996 | 13.89° C | 10% | 1012 hPa | 0 mm | 0.45 m/s, 149° | 0 W/m² | - |
| 1777975693 | 13.33° C | 10% | 1012.1 hPa | 0 mm | 0 m/s | 0 W/m² | - |
| 1777975389 | 13.89° C | 10% | 1012.2 hPa | 0 mm | 0 m/s | 0 W/m² | - |
| 1777975085 | 13.89° C | 10% | 1012 hPa | 0 mm | 0.45 m/s, 146° | 0 W/m² | - |
| 1777974783 | 14.44° C | 10% | 1012 hPa | 0 mm | 0 m/s | 0 W/m² | - |
| 1777974478 | 14.44° C | 10% | 1012 hPa | 0 mm | 0 m/s | 0 W/m² | - |
| 1777974175 | 14.44° C | 10% | 1011.9 hPa | 0 mm | 0 m/s | 0 W/m² | - |
| 1777973871 | 14.44° C | 10% | 1012.2 hPa | 0 mm | 0.89 m/s, 219° | 0 W/m² | - |
| 1777973569 | 15° C | 10% | 1012 hPa | 0 mm | 0 m/s | 0 W/m² | - |
| 1777973266 | 15° C | 10% | 1011.9 hPa | 0 mm | 1.34 m/s, 145° | 0 W/m² | - |
| 1777972964 | 15° C | 10% | 1012.1 hPa | 0 mm | 0.89 m/s, 118° | 0 W/m² | - |
| 1777972661 | 15° C | 10% | 1011.9 hPa | 0 mm | 0.89 m/s, 199° | 0 W/m² | - |
| 1777972359 | 15° C | 10% | 1012 hPa | 0 mm | 1.79 m/s, 113° | 0 W/m² | - |
| 1777972056 | 15.56° C | 10% | 1012 hPa | 0 mm | 0 m/s | 0 W/m² | - |
| 1777971755 | 16.11° C | 10% | 1012 hPa | 0 mm | 0.45 m/s, 221° | 0 W/m² | - |
| 1777971452 | 15.56° C | 10% | 1012.2 hPa | 0 mm | 1.34 m/s, 183° | 0 W/m² | - |
| 1777971150 | 15° C | 10% | 1012.5 hPa | 0 mm | 0.45 m/s, 129° | 0 W/m² | - |
| 1777970847 | 15° C | 10% | 1012.2 hPa | 0 mm | 1.34 m/s, 77° | 0 W/m² | - |
| 1777970546 | 15.56° C | 10% | 1012.3 hPa | 0 mm | 0 m/s | 0 W/m² | - |
| 1777970242 | 15.56° C | 10% | 1012.5 hPa | 0 mm | 0.45 m/s, 171° | 0 W/m² | - |
| 1777969939 | 15.56° C | 10% | 1012.3 hPa | 0 mm | 1.34 m/s, 129° | 0 W/m² | - |
| 1777969635 | 15° C | 10% | 1012.1 hPa | 0 mm | 0.45 m/s, 99° | 0 W/m² | - |
| 1777969333 | 15.56° C | 10% | 1012.5 hPa | 0 mm | 0.89 m/s, 216° | 0 W/m² | - |
| 1777969028 | 15.56° C | 10% | 1012.3 hPa | 0 mm | 0.45 m/s, 214° | 0 W/m² | - |
| 1777968726 | 16.11° C | 10% | 1012.2 hPa | 0 mm | 1.34 m/s, 217° | 0 W/m² | - |
* Rain latest hour (hover to see other rain measurements)
** Current wind speed in m/s (hover to see current wind gust speed)